Sunday, October 22, 2017, 5:09 PM EDT
Back to Local

KHZY, Ashtabula County Airport

Location: Jefferson, OH, United States Lat: 41.783
Local Time: 5:09 PM EDT (21:09 GMT) Lon: -80.7
Time Zone: US/Eastern Elev: 925 ft

Show me the last for .
Show Decoded

2017-10-22 16:53 METAR KHZY 222053Z AUTO 15008KT 10SM CLR 23/11 A3016 RMK AO2 SLP209 T02330111
                 56021 =
2017-10-22 15:53 METAR KHZY 221953Z AUTO 16007KT 10SM CLR 22/11 A3018 RMK AO2 SLP216 T02220106 =
2017-10-22 14:53 METAR KHZY 221853Z AUTO 20009KT 10SM CLR 24/09 A3019 RMK AO2 SLP221 T02390094 =
2017-10-22 13:53 METAR KHZY 221753Z AUTO 15008KT 10SM CLR 23/11 A3022 RMK AO2 SLP230 T02330111
                 10233 20117 58017 =
2017-10-22 12:53 METAR KHZY 221653Z AUTO 17009KT 10SM CLR 22/11 A3024 RMK AO2 SLP237 T02220111 =
2017-10-22 11:53 METAR KHZY 221553Z AUTO 18010KT 10SM CLR 21/12 A3026 RMK AO2 SLP245 T02110117 =
2017-10-22 10:53 METAR KHZY 221453Z AUTO 18008KT 10SM CLR 18/12 A3027 RMK AO2 SLP248 T01780122
                 55000 =
2017-10-22 09:53 METAR KHZY 221353Z AUTO 17007KT 10SM CLR 16/12 A3027 RMK AO2 SLP247 T01610117 =
2017-10-22 08:53 METAR KHZY 221253Z AUTO 16006KT 10SM CLR 13/11 A3027 RMK AO2 SLP250 T01330111 =
2017-10-22 07:53 METAR KHZY 221153Z AUTO 14006KT 10SM CLR 12/10 A3027 RMK AO2 SLP249 T01170100
                 10133 20089 58001 =
2017-10-22 06:53 METAR KHZY 221053Z AUTO 14005KT 10SM CLR 12/10 A3027 RMK AO2 SLP250 T01170100 =
2017-10-22 05:53 METAR KHZY 220953Z AUTO 15005KT 10SM CLR 12/10 A3028 RMK AO2 SLP252 T01170100 =
2017-10-22 04:53 METAR KHZY 220853Z AUTO 00000KT 10SM CLR 10/09 A3027 RMK AO2 SLP250 T01000094
                 51010 =
2017-10-22 03:53 METAR KHZY 220753Z AUTO 16005KT 10SM CLR 11/09 A3026 RMK AO2 SLP245 T01060094 =
2017-10-22 02:53 METAR KHZY 220653Z AUTO 17004KT 10SM CLR 12/10 A3026 RMK AO2 SLP244 T01170100 =
2017-10-22 01:53 METAR KHZY 220553Z AUTO 17007KT 10SM CLR 13/11 A3024 RMK AO2 SLP238 T01330106
                 10178 20133 55001 =
2017-10-22 00:53 METAR KHZY 220453Z AUTO 16006KT 10SM CLR 14/11 A3024 RMK AO2 SLP237 T01440106
                 402220067 =
2017-10-21 23:53 METAR KHZY 220353Z AUTO 16006KT 10SM CLR 15/11 A3024 RMK AO2 SLP238 T01500111 =
2017-10-21 22:53 METAR KHZY 220253Z AUTO 17005KT 10SM CLR 16/11 A3024 RMK AO2 SLP240 T01610106
                 58002 =
2017-10-21 21:53 METAR KHZY 220153Z AUTO 16006KT 10SM CLR 17/11 A3026 RMK AO2 SLP244 T01670106 =
2017-10-21 20:53 METAR KHZY 220053Z AUTO 17004KT 10SM CLR 17/10 A3026 RMK AO2 SLP245 T01720100 =
2017-10-21 19:53 METAR KHZY 212353Z AUTO 16004KT 10SM CLR 18/11 A3025 RMK AO2 SLP245 T01780106
                 10222 20150 53004 =
2017-10-21 18:53 METAR KHZY 212253Z AUTO 17003KT 10SM CLR 16/11 A3025 RMK AO2 SLP246 T01610106 =
2017-10-21 17:53 METAR KHZY 212153Z AUTO 18003KT 10SM CLR 20/09 A3024 RMK AO2 SLP240 T02000094 =

Support USWX by starting your Amazon purchase here.